sensor_id;sensor_type;location;lat;lon;timestamp;P1;durP1;ratioP1;P2;durP2;ratioP2
26201;SDS011;13944;28.562;77.188;2023-02-21T00:01:25;138.53;;;96.20;;
26201;SDS011;13944;28.562;77.188;2023-02-21T00:04:10;129.80;;;95.97;;
26201;SDS011;13944;28.562;77.188;2023-02-21T00:06:55;144.50;;;93.83;;
26201;SDS011;13944;28.562;77.188;2023-02-21T00:09:40;128.13;;;93.00;;
26201;SDS011;13944;28.562;77.188;2023-02-21T00:12:25;133.77;;;93.47;;
26201;SDS011;13944;28.562;77.188;2023-02-21T00:15:10;133.87;;;95.03;;
26201;SDS011;13944;28.562;77.188;2023-02-21T00:17:55;130.73;;;93.27;;
26201;SDS011;13944;28.562;77.188;2023-02-21T00:20:40;132.87;;;93.87;;
26201;SDS011;13944;28.562;77.188;2023-02-21T00:23:25;143.90;;;94.00;;
26201;SDS011;13944;28.562;77.188;2023-02-21T00:26:10;136.20;;;93.80;;
26201;SDS011;13944;28.562;77.188;2023-02-21T00:28:55;135.13;;;95.77;;
26201;SDS011;13944;28.562;77.188;2023-02-21T00:31:40;146.73;;;100.63;;
26201;SDS011;13944;28.562;77.188;2023-02-21T00:34:25;137.93;;;96.93;;
26201;SDS011;13944;28.562;77.188;2023-02-21T00:37:10;137.57;;;95.63;;
26201;SDS011;13944;28.562;77.188;2023-02-21T00:39:55;138.80;;;96.90;;
26201;SDS011;13944;28.562;77.188;2023-02-21T00:42:40;143.90;;;99.00;;
26201;SDS011;13944;28.562;77.188;2023-02-21T00:45:25;139.80;;;99.77;;
26201;SDS011;13944;28.562;77.188;2023-02-21T00:48:10;141.83;;;98.70;;
26201;SDS011;13944;28.562;77.188;2023-02-21T00:50:55;150.20;;;100.37;;
26201;SDS011;13944;28.562;77.188;2023-02-21T00:53:40;145.50;;;101.10;;
26201;SDS011;13944;28.562;77.188;2023-02-21T00:56:26;143.83;;;100.93;;
26201;SDS011;13944;28.562;77.188;2023-02-21T00:59:11;138.37;;;101.87;;
26201;SDS011;13944;28.562;77.188;2023-02-21T01:01:56;146.93;;;104.87;;
26201;SDS011;13944;28.562;77.188;2023-02-21T01:04:41;146.10;;;104.37;;
26201;SDS011;13944;28.562;77.188;2023-02-21T01:07:26;149.20;;;105.93;;
26201;SDS011;13944;28.562;77.188;2023-02-21T01:10:11;154.80;;;106.57;;
26201;SDS011;13944;28.562;77.188;2023-02-21T01:12:56;144.83;;;107.10;;
26201;SDS011;13944;28.562;77.188;2023-02-21T01:15:41;147.17;;;104.47;;
26201;SDS011;13944;28.562;77.188;2023-02-21T01:18:26;146.80;;;106.17;;
26201;SDS011;13944;28.562;77.188;2023-02-21T01:21:12;151.50;;;106.60;;
26201;SDS011;13944;28.562;77.188;2023-02-21T01:23:57;155.37;;;109.30;;
26201;SDS011;13944;28.562;77.188;2023-02-21T01:26:42;158.27;;;110.40;;
26201;SDS011;13944;28.562;77.188;2023-02-21T01:29:27;157.50;;;115.20;;
26201;SDS011;13944;28.562;77.188;2023-02-21T01:32:12;177.50;;;111.83;;
26201;SDS011;13944;28.562;77.188;2023-02-21T01:34:57;170.67;;;107.90;;
26201;SDS011;13944;28.562;77.188;2023-02-21T01:37:42;166.60;;;107.80;;
26201;SDS011;13944;28.562;77.188;2023-02-21T01:40:27;162.23;;;109.07;;
26201;SDS011;13944;28.562;77.188;2023-02-21T01:43:14;165.67;;;110.20;;
26201;SDS011;13944;28.562;77.188;2023-02-21T01:46:00;150.87;;;107.13;;
26201;SDS011;13944;28.562;77.188;2023-02-21T01:48:45;164.38;;;111.22;;
26201;SDS011;13944;28.562;77.188;2023-02-21T01:51:33;159.67;;;107.63;;
26201;SDS011;13944;28.562;77.188;2023-02-21T01:54:19;161.30;;;109.40;;
26201;SDS011;13944;28.562;77.188;2023-02-21T01:57:05;166.70;;;108.60;;
26201;SDS011;13944;28.562;77.188;2023-02-21T01:59:51;169.88;;;111.10;;
26201;SDS011;13944;28.562;77.188;2023-02-21T02:02:44;163.80;;;109.10;;
26201;SDS011;13944;28.562;77.188;2023-02-21T02:05:31;177.47;;;109.50;;
26201;SDS011;13944;28.562;77.188;2023-02-21T02:08:17;179.57;;;110.00;;
26201;SDS011;13944;28.562;77.188;2023-02-21T02:14:13;156.63;;;107.73;;
26201;SDS011;13944;28.562;77.188;2023-02-21T02:16:56;170.73;;;112.00;;
26201;SDS011;13944;28.562;77.188;2023-02-21T02:19:41;179.30;;;113.40;;
26201;SDS011;13944;28.562;77.188;2023-02-21T02:30:51;172.83;;;115.73;;
26201;SDS011;13944;28.562;77.188;2023-02-21T02:36:29;178.87;;;115.50;;
26201;SDS011;13944;28.562;77.188;2023-02-21T02:39:14;168.27;;;110.43;;
26201;SDS011;13944;28.562;77.188;2023-02-21T02:44:24;157.87;;;111.20;;
26201;SDS011;13944;28.562;77.188;2023-02-21T02:46:53;153.53;;;109.40;;
26201;SDS011;13944;28.562;77.188;2023-02-21T02:49:23;165.63;;;111.27;;
26201;SDS011;13944;28.562;77.188;2023-02-21T02:51:51;158.63;;;110.33;;
26201;SDS011;13944;28.562;77.188;2023-02-21T02:54:18;164.30;;;112.57;;
26201;SDS011;13944;28.562;77.188;2023-02-21T02:56:45;158.87;;;108.13;;
26201;SDS011;13944;28.562;77.188;2023-02-21T02:59:21;160.70;;;111.67;;
26201;SDS011;13944;28.562;77.188;2023-02-21T03:04:29;148.07;;;109.00;;
26201;SDS011;13944;28.562;77.188;2023-02-21T03:09:47;136.63;;;97.00;;
26201;SDS011;13944;28.562;77.188;2023-02-21T03:12:25;148.17;;;99.37;;
26201;SDS011;13944;28.562;77.188;2023-02-21T03:15:00;142.03;;;97.27;;
26201;SDS011;13944;28.562;77.188;2023-02-21T03:17:30;134.63;;;95.03;;
26201;SDS011;13944;28.562;77.188;2023-02-21T03:19:59;136.80;;;93.57;;
26201;SDS011;13944;28.562;77.188;2023-02-21T03:22:29;136.57;;;95.30;;
26201;SDS011;13944;28.562;77.188;2023-02-21T03:25:00;150.87;;;94.10;;
26201;SDS011;13944;28.562;77.188;2023-02-21T03:27:28;139.80;;;95.57;;
26201;SDS011;13944;28.562;77.188;2023-02-21T03:29:56;132.07;;;96.27;;
26201;SDS011;13944;28.562;77.188;2023-02-21T03:32:26;143.23;;;96.87;;
26201;SDS011;13944;28.562;77.188;2023-02-21T03:34:54;130.80;;;97.80;;
26201;SDS011;13944;28.562;77.188;2023-02-21T03:37:40;133.43;;;93.20;;
26201;SDS011;13944;28.562;77.188;2023-02-21T03:40:09;125.50;;;88.87;;
26201;SDS011;13944;28.562;77.188;2023-02-21T03:42:37;123.83;;;88.37;;
26201;SDS011;13944;28.562;77.188;2023-02-21T03:45:04;128.00;;;89.10;;
26201;SDS011;13944;28.562;77.188;2023-02-21T03:47:31;121.68;;;85.78;;
26201;SDS011;13944;28.562;77.188;2023-02-21T03:49:58;145.10;;;92.27;;
26201;SDS011;13944;28.562;77.188;2023-02-21T03:52:25;121.87;;;78.57;;
26201;SDS011;13944;28.562;77.188;2023-02-21T03:54:52;107.63;;;70.53;;
26201;SDS011;13944;28.562;77.188;2023-02-21T03:57:19;116.27;;;73.50;;
26201;SDS011;13944;28.562;77.188;2023-02-21T03:59:46;111.50;;;75.13;;
26201;SDS011;13944;28.562;77.188;2023-02-21T04:02:13;111.03;;;71.53;;
26201;SDS011;13944;28.562;77.188;2023-02-21T04:04:41;106.77;;;68.03;;
26201;SDS011;13944;28.562;77.188;2023-02-21T04:07:08;96.27;;;61.73;;
26201;SDS011;13944;28.562;77.188;2023-02-21T04:09:35;92.10;;;60.27;;
26201;SDS011;13944;28.562;77.188;2023-02-21T04:12:06;97.13;;;62.73;;
26201;SDS011;13944;28.562;77.188;2023-02-21T04:14:33;102.70;;;64.97;;
26201;SDS011;13944;28.562;77.188;2023-02-21T04:17:00;89.47;;;60.30;;
26201;SDS011;13944;28.562;77.188;2023-02-21T04:19:27;105.13;;;63.00;;
26201;SDS011;13944;28.562;77.188;2023-02-21T04:21:54;95.37;;;64.93;;
26201;SDS011;13944;28.562;77.188;2023-02-21T04:24:21;101.83;;;66.40;;
26201;SDS011;13944;28.562;77.188;2023-02-21T04:26:48;94.83;;;63.97;;
26201;SDS011;13944;28.562;77.188;2023-02-21T04:29:15;94.90;;;63.87;;
26201;SDS011;13944;28.562;77.188;2023-02-21T04:31:43;99.87;;;67.00;;
26201;SDS011;13944;28.562;77.188;2023-02-21T04:34:10;105.10;;;70.07;;
26201;SDS011;13944;28.562;77.188;2023-02-21T04:36:37;114.28;;;73.82;;
26201;SDS011;13944;28.562;77.188;2023-02-21T04:39:04;116.43;;;69.07;;
26201;SDS011;13944;28.562;77.188;2023-02-21T04:41:32;112.50;;;69.37;;
26201;SDS011;13944;28.562;77.188;2023-02-21T04:43:59;105.83;;;65.97;;
26201;SDS011;13944;28.562;77.188;2023-02-21T04:46:26;104.32;;;67.50;;
26201;SDS011;13944;28.562;77.188;2023-02-21T04:48:53;101.60;;;64.20;;
26201;SDS011;13944;28.562;77.188;2023-02-21T04:51:21;91.37;;;60.20;;
26201;SDS011;13944;28.562;77.188;2023-02-21T04:53:49;85.67;;;58.47;;
26201;SDS011;13944;28.562;77.188;2023-02-21T04:56:20;86.27;;;56.87;;
26201;SDS011;13944;28.562;77.188;2023-02-21T04:58:48;85.90;;;56.63;;
26201;SDS011;13944;28.562;77.188;2023-02-21T05:01:15;88.03;;;57.20;;
26201;SDS011;13944;28.562;77.188;2023-02-21T05:03:43;94.07;;;55.00;;
26201;SDS011;13944;28.562;77.188;2023-02-21T05:06:15;104.47;;;63.47;;
26201;SDS011;13944;28.562;77.188;2023-02-21T05:08:43;95.90;;;64.13;;
26201;SDS011;13944;28.562;77.188;2023-02-21T05:11:10;84.97;;;56.60;;
26201;SDS011;13944;28.562;77.188;2023-02-21T05:13:37;87.63;;;57.43;;
26201;SDS011;13944;28.562;77.188;2023-02-21T05:16:04;94.47;;;66.60;;
26201;SDS011;13944;28.562;77.188;2023-02-21T05:18:31;92.37;;;61.23;;
26201;SDS011;13944;28.562;77.188;2023-02-21T05:20:59;92.30;;;58.50;;
26201;SDS011;13944;28.562;77.188;2023-02-21T05:23:26;110.53;;;71.23;;
26201;SDS011;13944;28.562;77.188;2023-02-21T05:26:04;118.43;;;73.87;;
26201;SDS011;13944;28.562;77.188;2023-02-21T05:28:31;106.30;;;70.83;;
26201;SDS011;13944;28.562;77.188;2023-02-21T05:30:58;119.30;;;77.30;;
26201;SDS011;13944;28.562;77.188;2023-02-21T05:33:25;124.47;;;81.83;;
26201;SDS011;13944;28.562;77.188;2023-02-21T05:35:52;131.23;;;90.07;;
26201;SDS011;13944;28.562;77.188;2023-02-21T05:38:20;135.70;;;84.15;;
26201;SDS011;13944;28.562;77.188;2023-02-21T05:40:47;134.45;;;88.00;;
26201;SDS011;13944;28.562;77.188;2023-02-21T05:43:14;131.27;;;87.60;;
26201;SDS011;13944;28.562;77.188;2023-02-21T05:45:42;138.85;;;87.53;;
26201;SDS011;13944;28.562;77.188;2023-02-21T05:48:09;137.27;;;84.83;;
26201;SDS011;13944;28.562;77.188;2023-02-21T05:50:36;117.32;;;77.75;;
26201;SDS011;13944;28.562;77.188;2023-02-21T05:53:04;130.25;;;79.28;;
26201;SDS011;13944;28.562;77.188;2023-02-21T05:55:34;114.55;;;69.28;;
26201;SDS011;13944;28.562;77.188;2023-02-21T05:58:01;107.63;;;65.30;;
26201;SDS011;13944;28.562;77.188;2023-02-21T06:00:28;106.97;;;65.22;;
26201;SDS011;13944;28.562;77.188;2023-02-21T06:02:56;103.07;;;61.65;;
26201;SDS011;13944;28.562;77.188;2023-02-21T06:05:23;107.70;;;58.70;;
26201;SDS011;13944;28.562;77.188;2023-02-21T06:07:50;96.53;;;56.17;;
26201;SDS011;13944;28.562;77.188;2023-02-21T06:10:17;98.13;;;55.15;;
26201;SDS011;13944;28.562;77.188;2023-02-21T06:12:44;110.45;;;60.53;;
26201;SDS011;13944;28.562;77.188;2023-02-21T06:15:11;119.40;;;63.38;;
26201;SDS011;13944;28.562;77.188;2023-02-21T06:17:39;116.32;;;63.80;;
26201;SDS011;13944;28.562;77.188;2023-02-21T06:20:06;122.53;;;65.07;;
26201;SDS011;13944;28.562;77.188;2023-02-21T06:22:34;122.60;;;63.28;;
26201;SDS011;13944;28.562;77.188;2023-02-21T06:25:01;114.50;;;58.95;;
26201;SDS011;13944;28.562;77.188;2023-02-21T06:27:28;121.57;;;60.08;;
26201;SDS011;13944;28.562;77.188;2023-02-21T06:29:55;111.05;;;59.78;;
26201;SDS011;13944;28.562;77.188;2023-02-21T06:32:22;92.50;;;51.38;;
26201;SDS011;13944;28.562;77.188;2023-02-21T06:34:49;87.22;;;51.85;;
26201;SDS011;13944;28.562;77.188;2023-02-21T06:37:16;94.20;;;50.38;;
26201;SDS011;13944;28.562;77.188;2023-02-21T06:39:44;87.55;;;48.10;;
26201;SDS011;13944;28.562;77.188;2023-02-21T06:42:14;87.90;;;46.58;;
26201;SDS011;13944;28.562;77.188;2023-02-21T06:44:42;91.60;;;47.88;;
26201;SDS011;13944;28.562;77.188;2023-02-21T06:47:10;78.53;;;45.63;;
26201;SDS011;13944;28.562;77.188;2023-02-21T06:49:37;89.05;;;48.50;;
26201;SDS011;13944;28.562;77.188;2023-02-21T06:52:04;93.75;;;50.42;;
26201;SDS011;13944;28.562;77.188;2023-02-21T06:54:33;82.45;;;47.33;;
26201;SDS011;13944;28.562;77.188;2023-02-21T06:57:00;83.68;;;47.75;;
26201;SDS011;13944;28.562;77.188;2023-02-21T06:59:27;83.50;;;47.70;;
26201;SDS011;13944;28.562;77.188;2023-02-21T07:01:55;94.35;;;50.40;;
26201;SDS011;13944;28.562;77.188;2023-02-21T07:04:22;107.65;;;52.13;;
26201;SDS011;13944;28.562;77.188;2023-02-21T07:07:08;94.45;;;51.05;;
26201;SDS011;13944;28.562;77.188;2023-02-21T07:09:35;88.22;;;51.75;;
26201;SDS011;13944;28.562;77.188;2023-02-21T07:12:02;74.35;;;44.45;;
26201;SDS011;13944;28.562;77.188;2023-02-21T07:14:29;79.47;;;49.58;;
26201;SDS011;13944;28.562;77.188;2023-02-21T07:16:56;87.78;;;51.58;;
26201;SDS011;13944;28.562;77.188;2023-02-21T07:19:23;81.80;;;47.42;;
26201;SDS011;13944;28.562;77.188;2023-02-21T07:21:50;88.63;;;51.95;;
26201;SDS011;13944;28.562;77.188;2023-02-21T07:24:17;85.55;;;51.17;;
26201;SDS011;13944;28.562;77.188;2023-02-21T07:26:47;88.38;;;55.35;;
26201;SDS011;13944;28.562;77.188;2023-02-21T07:29:15;77.97;;;53.25;;
26201;SDS011;13944;28.562;77.188;2023-02-21T07:31:43;89.82;;;55.83;;
26201;SDS011;13944;28.562;77.188;2023-02-21T07:34:10;90.82;;;53.55;;
26201;SDS011;13944;28.562;77.188;2023-02-21T07:36:37;91.03;;;53.92;;
26201;SDS011;13944;28.562;77.188;2023-02-21T07:39:04;85.88;;;59.50;;
26201;SDS011;13944;28.562;77.188;2023-02-21T07:41:31;81.85;;;55.17;;
26201;SDS011;13944;28.562;77.188;2023-02-21T07:43:58;92.50;;;59.95;;
26201;SDS011;13944;28.562;77.188;2023-02-21T07:46:26;102.75;;;60.40;;
26201;SDS011;13944;28.562;77.188;2023-02-21T07:48:53;102.97;;;59.95;;
26201;SDS011;13944;28.562;77.188;2023-02-21T07:51:21;96.65;;;60.03;;
26201;SDS011;13944;28.562;77.188;2023-02-21T07:53:48;97.35;;;59.78;;
26201;SDS011;13944;28.562;77.188;2023-02-21T07:56:15;88.55;;;56.58;;
26201;SDS011;13944;28.562;77.188;2023-02-21T07:58:42;95.05;;;56.80;;
26201;SDS011;13944;28.562;77.188;2023-02-21T08:01:09;91.22;;;62.60;;
26201;SDS011;13944;28.562;77.188;2023-02-21T08:03:36;95.28;;;62.65;;
26201;SDS011;13944;28.562;77.188;2023-02-21T08:06:05;86.00;;;58.35;;
26201;SDS011;13944;28.562;77.188;2023-02-21T08:08:32;92.82;;;58.08;;
26201;SDS011;13944;28.562;77.188;2023-02-21T08:10:59;88.30;;;53.50;;
26201;SDS011;13944;28.562;77.188;2023-02-21T08:13:26;70.20;;;47.35;;
26201;SDS011;13944;28.562;77.188;2023-02-21T08:15:53;76.80;;;50.72;;
26201;SDS011;13944;28.562;77.188;2023-02-21T08:18:21;76.65;;;53.13;;
26201;SDS011;13944;28.562;77.188;2023-02-21T08:20:49;83.03;;;50.78;;
26201;SDS011;13944;28.562;77.188;2023-02-21T08:23:17;80.22;;;51.58;;
26201;SDS011;13944;28.562;77.188;2023-02-21T08:25:44;84.05;;;53.70;;
26201;SDS011;13944;28.562;77.188;2023-02-21T08:28:12;76.25;;;52.72;;
26201;SDS011;13944;28.562;77.188;2023-02-21T08:30:39;80.05;;;56.33;;
26201;SDS011;13944;28.562;77.188;2023-02-21T08:33:06;70.78;;;50.80;;
26201;SDS011;13944;28.562;77.188;2023-02-21T08:35:36;83.13;;;55.35;;
26201;SDS011;13944;28.562;77.188;2023-02-21T08:38:03;78.30;;;53.92;;
26201;SDS011;13944;28.562;77.188;2023-02-21T08:40:31;80.80;;;56.13;;
26201;SDS011;13944;28.562;77.188;2023-02-21T08:42:58;80.25;;;55.88;;
26201;SDS011;13944;28.562;77.188;2023-02-21T08:45:26;93.28;;;58.85;;
26201;SDS011;13944;28.562;77.188;2023-02-21T08:47:54;77.07;;;52.40;;
26201;SDS011;13944;28.562;77.188;2023-02-21T08:50:22;75.22;;;55.67;;
26201;SDS011;13944;28.562;77.188;2023-02-21T08:52:50;85.63;;;57.92;;
26201;SDS011;13944;28.562;77.188;2023-02-21T08:55:17;80.90;;;53.88;;
26201;SDS011;13944;28.562;77.188;2023-02-21T08:57:48;87.30;;;57.83;;
26201;SDS011;13944;28.562;77.188;2023-02-21T09:00:16;75.90;;;54.40;;
26201;SDS011;13944;28.562;77.188;2023-02-21T09:02:43;73.40;;;52.17;;
26201;SDS011;13944;28.562;77.188;2023-02-21T09:05:12;65.68;;;49.05;;
26201;SDS011;13944;28.562;77.188;2023-02-21T09:07:40;76.15;;;50.15;;
26201;SDS011;13944;28.562;77.188;2023-02-21T09:10:07;72.85;;;47.85;;
26201;SDS011;13944;28.562;77.188;2023-02-21T09:12:35;77.25;;;52.28;;
26201;SDS011;13944;28.562;77.188;2023-02-21T09:15:02;98.88;;;54.67;;
26201;SDS011;13944;28.562;77.188;2023-02-21T09:17:30;82.28;;;57.30;;
26201;SDS011;13944;28.562;77.188;2023-02-21T09:20:00;69.97;;;51.22;;
26201;SDS011;13944;28.562;77.188;2023-02-21T09:22:29;82.25;;;55.13;;
26201;SDS011;13944;28.562;77.188;2023-02-21T09:24:56;82.78;;;55.78;;
26201;SDS011;13944;28.562;77.188;2023-02-21T09:27:23;93.35;;;61.72;;
26201;SDS011;13944;28.562;77.188;2023-02-21T09:30:04;86.70;;;57.05;;
26201;SDS011;13944;28.562;77.188;2023-02-21T09:32:31;99.38;;;66.40;;
26201;SDS011;13944;28.562;77.188;2023-02-21T09:34:58;98.10;;;64.97;;
26201;SDS011;13944;28.562;77.188;2023-02-21T09:37:25;93.50;;;62.92;;
26201;SDS011;13944;28.562;77.188;2023-02-21T09:39:52;95.00;;;66.03;;
26201;SDS011;13944;28.562;77.188;2023-02-21T09:42:20;94.10;;;62.67;;
26201;SDS011;13944;28.562;77.188;2023-02-21T09:44:48;78.00;;;55.33;;
26201;SDS011;13944;28.562;77.188;2023-02-21T09:47:24;83.72;;;57.03;;
26201;SDS011;13944;28.562;77.188;2023-02-21T09:49:54;81.63;;;55.65;;
26201;SDS011;13944;28.562;77.188;2023-02-21T09:52:29;91.20;;;57.10;;
26201;SDS011;13944;28.562;77.188;2023-02-21T09:54:57;84.53;;;59.45;;
26201;SDS011;13944;28.562;77.188;2023-02-21T09:57:25;78.57;;;54.45;;
26201;SDS011;13944;28.562;77.188;2023-02-21T09:59:52;77.22;;;50.85;;
26201;SDS011;13944;28.562;77.188;2023-02-21T10:08:00;80.60;;;58.15;;
26201;SDS011;13944;28.562;77.188;2023-02-21T10:10:49;85.95;;;58.10;;
26201;SDS011;13944;28.562;77.188;2023-02-21T10:18:44;85.88;;;54.25;;
26201;SDS011;13944;28.562;77.188;2023-02-21T10:21:24;87.32;;;56.55;;
26201;SDS011;13944;28.562;77.188;2023-02-21T10:23:53;87.43;;;54.25;;
26201;SDS011;13944;28.562;77.188;2023-02-21T10:26:23;72.78;;;53.17;;
26201;SDS011;13944;28.562;77.188;2023-02-21T10:28:52;79.60;;;53.05;;
26201;SDS011;13944;28.562;77.188;2023-02-21T10:31:24;79.05;;;53.75;;
26201;SDS011;13944;28.562;77.188;2023-02-21T10:33:55;78.20;;;51.28;;
26201;SDS011;13944;28.562;77.188;2023-02-21T10:36:24;82.30;;;55.88;;
26201;SDS011;13944;28.562;77.188;2023-02-21T10:39:05;79.35;;;55.03;;
26201;SDS011;13944;28.562;77.188;2023-02-21T10:41:39;79.82;;;56.42;;
26201;SDS011;13944;28.562;77.188;2023-02-21T10:44:25;87.75;;;57.58;;
26201;SDS011;13944;28.562;77.188;2023-02-21T10:47:07;84.25;;;58.15;;
26201;SDS011;13944;28.562;77.188;2023-02-21T10:49:42;96.57;;;60.20;;
26201;SDS011;13944;28.562;77.188;2023-02-21T10:52:13;95.50;;;62.90;;
26201;SDS011;13944;28.562;77.188;2023-02-21T10:55:02;89.05;;;61.70;;
26201;SDS011;13944;28.562;77.188;2023-02-21T10:57:33;94.50;;;67.35;;
26201;SDS011;13944;28.562;77.188;2023-02-21T11:00:05;98.63;;;66.53;;
26201;SDS011;13944;28.562;77.188;2023-02-21T11:02:36;95.07;;;65.47;;
26201;SDS011;13944;28.562;77.188;2023-02-21T11:05:08;97.78;;;66.47;;
26201;SDS011;13944;28.562;77.188;2023-02-21T11:07:37;94.07;;;69.57;;
26201;SDS011;13944;28.562;77.188;2023-02-21T11:13:16;100.10;;;71.40;;
26201;SDS011;13944;28.562;77.188;2023-02-21T11:15:46;118.13;;;77.32;;
26201;SDS011;13944;28.562;77.188;2023-02-21T11:18:14;98.93;;;71.30;;
26201;SDS011;13944;28.562;77.188;2023-02-21T11:20:42;109.35;;;77.30;;
26201;SDS011;13944;28.562;77.188;2023-02-21T11:23:19;111.88;;;81.03;;
26201;SDS011;13944;28.562;77.188;2023-02-21T11:25:47;115.82;;;83.40;;
26201;SDS011;13944;28.562;77.188;2023-02-21T11:28:21;117.72;;;83.22;;
26201;SDS011;13944;28.562;77.188;2023-02-21T11:30:50;117.03;;;87.13;;
26201;SDS011;13944;28.562;77.188;2023-02-21T11:33:29;128.10;;;89.03;;
26201;SDS011;13944;28.562;77.188;2023-02-21T11:36:16;127.22;;;89.47;;
26201;SDS011;13944;28.562;77.188;2023-02-21T11:39:05;120.82;;;86.45;;
26201;SDS011;13944;28.562;77.188;2023-02-21T11:44:01;109.20;;;75.78;;
26201;SDS011;13944;28.562;77.188;2023-02-21T11:46:36;117.97;;;81.50;;
26201;SDS011;13944;28.562;77.188;2023-02-21T11:49:07;136.48;;;92.25;;
26201;SDS011;13944;28.562;77.188;2023-02-21T11:54:04;135.30;;;94.18;;
26201;SDS011;13944;28.562;77.188;2023-02-21T11:56:41;130.68;;;90.72;;
26201;SDS011;13944;28.562;77.188;2023-02-21T12:04:27;118.18;;;84.25;;
26201;SDS011;13944;28.562;77.188;2023-02-21T12:09:37;135.55;;;88.07;;
26201;SDS011;13944;28.562;77.188;2023-02-21T12:25:12;134.07;;;87.60;;
26201;SDS011;13944;28.562;77.188;2023-02-21T12:30:34;162.05;;;94.88;;
26201;SDS011;13944;28.562;77.188;2023-02-21T12:33:19;138.05;;;88.97;;
26201;SDS011;13944;28.562;77.188;2023-02-21T12:49:43;158.35;;;114.97;;
26201;SDS011;13944;28.562;77.188;2023-02-21T12:52:15;153.95;;;109.10;;
26201;SDS011;13944;28.562;77.188;2023-02-21T12:54:44;164.70;;;108.28;;
26201;SDS011;13944;28.562;77.188;2023-02-21T12:57:15;158.48;;;110.70;;
26201;SDS011;13944;28.562;77.188;2023-02-21T12:59:53;173.30;;;117.30;;
26201;SDS011;13944;28.562;77.188;2023-02-21T13:05:09;158.07;;;116.93;;
26201;SDS011;13944;28.562;77.188;2023-02-21T13:07:46;173.10;;;118.95;;
26201;SDS011;13944;28.562;77.188;2023-02-21T13:12:47;160.25;;;113.35;;
26201;SDS011;13944;28.562;77.188;2023-02-21T13:15:18;172.77;;;115.20;;
26201;SDS011;13944;28.562;77.188;2023-02-21T13:17:51;190.57;;;117.53;;
26201;SDS011;13944;28.562;77.188;2023-02-21T13:20:21;175.52;;;119.60;;
26201;SDS011;13944;28.562;77.188;2023-02-21T13:22:48;175.02;;;119.60;;
26201;SDS011;13944;28.562;77.188;2023-02-21T13:26:19;180.68;;;126.68;;
26201;SDS011;13944;28.562;77.188;2023-02-21T13:28:21;185.82;;;127.82;;
26201;SDS011;13944;28.562;77.188;2023-02-21T13:30:50;201.93;;;137.05;;
26201;SDS011;13944;28.562;77.188;2023-02-21T13:33:25;191.95;;;133.70;;
26201;SDS011;13944;28.562;77.188;2023-02-21T13:35:54;202.45;;;141.27;;
26201;SDS011;13944;28.562;77.188;2023-02-21T13:38:22;210.32;;;154.35;;
26201;SDS011;13944;28.562;77.188;2023-02-21T13:40:52;199.82;;;145.80;;
26201;SDS011;13944;28.562;77.188;2023-02-21T13:45:47;199.35;;;144.73;;
26201;SDS011;13944;28.562;77.188;2023-02-21T13:48:18;198.43;;;147.02;;
26201;SDS011;13944;28.562;77.188;2023-02-21T13:50:52;207.80;;;146.10;;
26201;SDS011;13944;28.562;77.188;2023-02-21T13:53:21;193.35;;;144.27;;
26201;SDS011;13944;28.562;77.188;2023-02-21T13:58:33;196.07;;;143.65;;
26201;SDS011;13944;28.562;77.188;2023-02-21T14:03:50;197.98;;;145.00;;
26201;SDS011;13944;28.562;77.188;2023-02-21T14:06:23;204.45;;;154.52;;
26201;SDS011;13944;28.562;77.188;2023-02-21T14:08:59;211.35;;;150.77;;
26201;SDS011;13944;28.562;77.188;2023-02-21T14:11:29;201.88;;;149.50;;
26201;SDS011;13944;28.562;77.188;2023-02-21T14:14:04;197.02;;;147.27;;
26201;SDS011;13944;28.562;77.188;2023-02-21T14:21:48;209.98;;;149.57;;
26201;SDS011;13944;28.562;77.188;2023-02-21T14:24:20;215.10;;;150.30;;
26201;SDS011;13944;28.562;77.188;2023-02-21T14:31:46;211.27;;;152.13;;
26201;SDS011;13944;28.562;77.188;2023-02-21T14:34:16;220.73;;;154.05;;
26201;SDS011;13944;28.562;77.188;2023-02-21T14:36:45;224.20;;;152.65;;
26201;SDS011;13944;28.562;77.188;2023-02-21T14:39:15;222.77;;;156.48;;
26201;SDS011;13944;28.562;77.188;2023-02-21T14:41:49;232.90;;;161.73;;
26201;SDS011;13944;28.562;77.188;2023-02-21T14:44:27;231.40;;;165.68;;
26201;SDS011;13944;28.562;77.188;2023-02-21T14:57:48;231.43;;;164.43;;
26201;SDS011;13944;28.562;77.188;2023-02-21T15:08:26;234.63;;;168.25;;
26201;SDS011;13944;28.562;77.188;2023-02-21T15:11:02;228.10;;;166.95;;
26201;SDS011;13944;28.562;77.188;2023-02-21T15:13:38;231.65;;;163.38;;
26201;SDS011;13944;28.562;77.188;2023-02-21T15:16:07;243.60;;;163.95;;
26201;SDS011;13944;28.562;77.188;2023-02-21T15:18:37;235.27;;;163.45;;
26201;SDS011;13944;28.562;77.188;2023-02-21T15:23:35;241.07;;;165.00;;
26201;SDS011;13944;28.562;77.188;2023-02-21T15:28:46;225.57;;;165.43;;
26201;SDS011;13944;28.562;77.188;2023-02-21T15:31:31;235.85;;;166.02;;
26201;SDS011;13944;28.562;77.188;2023-02-21T15:33:58;230.35;;;165.48;;
26201;SDS011;13944;28.562;77.188;2023-02-21T15:36:25;228.75;;;165.63;;
26201;SDS011;13944;28.562;77.188;2023-02-21T15:43:57;233.38;;;170.88;;
26201;SDS011;13944;28.562;77.188;2023-02-21T15:46:29;227.98;;;169.45;;
26201;SDS011;13944;28.562;77.188;2023-02-21T15:48:58;235.30;;;172.00;;
26201;SDS011;13944;28.562;77.188;2023-02-21T15:51:26;236.70;;;172.95;;
26201;SDS011;13944;28.562;77.188;2023-02-21T15:57:00;237.65;;;171.70;;
26201;SDS011;13944;28.562;77.188;2023-02-21T15:59:27;240.52;;;174.73;;
26201;SDS011;13944;28.562;77.188;2023-02-21T16:04:44;228.93;;;169.70;;
26201;SDS011;13944;28.562;77.188;2023-02-21T16:07:53;236.05;;;171.30;;
26201;SDS011;13944;28.562;77.188;2023-02-21T16:10:06;236.25;;;170.55;;
26201;SDS011;13944;28.562;77.188;2023-02-21T16:12:35;248.82;;;179.32;;
26201;SDS011;13944;28.562;77.188;2023-02-21T16:15:07;239.85;;;177.20;;
26201;SDS011;13944;28.562;77.188;2023-02-21T16:17:41;241.35;;;178.30;;
26201;SDS011;13944;28.562;77.188;2023-02-21T16:22:42;246.32;;;185.70;;
26201;SDS011;13944;28.562;77.188;2023-02-21T16:27:39;244.43;;;184.35;;
26201;SDS011;13944;28.562;77.188;2023-02-21T16:30:10;270.38;;;188.07;;
26201;SDS011;13944;28.562;77.188;2023-02-21T16:32:37;257.20;;;189.40;;
26201;SDS011;13944;28.562;77.188;2023-02-21T16:35:05;256.23;;;185.15;;
26201;SDS011;13944;28.562;77.188;2023-02-21T16:37:32;255.80;;;191.70;;
26201;SDS011;13944;28.562;77.188;2023-02-21T16:39:59;250.35;;;186.68;;
26201;SDS011;13944;28.562;77.188;2023-02-21T16:42:26;260.20;;;193.65;;
26201;SDS011;13944;28.562;77.188;2023-02-21T16:44:53;257.25;;;189.05;;
26201;SDS011;13944;28.562;77.188;2023-02-21T16:47:20;249.98;;;188.32;;